Terminal Aerodrome Forecast
Issued by NWS Jackson, KY

Home | Current Version | Previous Version | Text Only | Print | Product List | Glossary On
Versions: 1 2 3 4 5 6 7 8 9 10 11 12 13 14 15 16
922
FTUS43 KJKL 241738
TAFJKL
TAF
KJKL 241738Z 2418/2518 19009G19KT P6SM FEW040 SCT250
     FM250300 19008KT P6SM VCTS FEW040CB SCT060 BKN100 WS020/21040KT
     FM250600 21010KT 5SM -SHRA VCTS BKN035CB OVC060
     FM250900 24008KT 3SM SHRA OVC015
     FM251100 27010KT 3SM -SHRA OVC015
     FM251400 27010G18KT P6SM BKN020=

USA.gov is the U.S. government's official web portal to all federal, state and local government web resources and services.